createdAt,value
2019-03-27T00:00:53.546Z,98172.48
2019-03-27T00:03:26.027Z,98172.31
2019-03-27T00:05:58.234Z,98167.23
2019-03-27T00:08:28.646Z,98170.91
2019-03-27T00:10:58.269Z,98173.33
2019-03-27T00:13:33.056Z,98174.50
2019-03-27T00:16:02.957Z,98165.95
2019-03-27T00:18:33.092Z,98165.09
2019-03-27T00:21:03.901Z,98164.27
2019-03-27T00:23:33.511Z,98153.73
2019-03-27T00:26:03.142Z,98148.49
2019-03-27T00:28:33.026Z,98155.41
2019-03-27T00:31:02.627Z,98150.02
2019-03-27T00:33:32.259Z,98145.48
2019-03-27T00:36:01.873Z,98150.81
2019-03-27T00:38:32.645Z,98142.33
2019-03-27T00:41:02.517Z,98142.77
2019-03-27T00:43:32.555Z,98144.85
2019-03-27T00:46:03.514Z,98145.28
2019-03-27T00:48:33.263Z,98142.88
2019-03-27T00:51:02.896Z,98151.06
2019-03-27T00:53:32.544Z,98143.94
2019-03-27T00:56:02.179Z,98139.58
2019-03-27T00:58:31.828Z,98142.98
2019-03-27T01:01:09.533Z,98142.30
2019-03-27T01:03:39.165Z,98149.88
2019-03-27T01:06:08.797Z,98154.44
2019-03-27T01:08:38.449Z,98146.46
2019-03-27T01:11:08.085Z,98143.41
2019-03-27T01:13:37.717Z,98144.42
2019-03-27T01:16:07.342Z,98138.84
2019-03-27T01:18:36.995Z,98134.83
2019-03-27T01:21:06.615Z,98141.50
2019-03-27T01:23:36.965Z,98136.70
2019-03-27T01:26:06.625Z,98134.40
2019-03-27T01:28:36.278Z,98143.02
2019-03-27T01:31:05.882Z,98142.75
2019-03-27T01:33:36.604Z,98137.38
2019-03-27T01:36:06.231Z,98141.84
2019-03-27T01:38:35.874Z,98146.23
2019-03-27T01:41:05.839Z,98138.06
2019-03-27T01:43:35.821Z,98134.09
2019-03-27T01:46:06.224Z,98140.28
2019-03-27T01:48:35.899Z,98136.44
2019-03-27T01:51:05.538Z,98141.69
2019-03-27T01:53:35.157Z,98144.28
2019-03-27T01:56:04.810Z,98138.09
2019-03-27T01:58:34.428Z,98128.08
2019-03-27T02:01:04.473Z,98137.48
2019-03-27T02:03:34.089Z,98133.22
2019-03-27T02:06:03.725Z,98126.98
2019-03-27T02:08:33.339Z,98125.30
2019-03-27T02:11:03.588Z,98132.89
2019-03-27T02:13:33.199Z,98132.67
2019-03-27T02:16:07.120Z,98130.80
2019-03-27T02:18:34.185Z,98138.45
2019-03-27T02:21:03.833Z,98133.85
2019-03-27T02:23:33.799Z,98142.52
2019-03-27T02:26:03.440Z,98143.91
2019-03-27T02:28:33.065Z,98149.89
2019-03-27T02:31:02.721Z,98135.25
2019-03-27T02:33:32.323Z,98133.13
2019-03-27T02:36:01.986Z,98139.73
2019-03-27T02:38:31.580Z,98139.30
2019-03-27T02:41:01.220Z,98139.34
2019-03-27T02:43:30.840Z,98141.86
2019-03-27T02:46:00.586Z,98136.95
2019-03-27T02:48:31.011Z,98142.23
2019-03-27T02:51:00.630Z,98137.12
2019-03-27T02:53:30.241Z,98139.79
2019-03-27T02:55:59.972Z,98139.45
2019-03-27T02:58:29.587Z,98141.43
2019-03-27T03:00:59.938Z,98137.98
2019-03-27T03:03:29.553Z,98143.46
2019-03-27T03:05:59.198Z,98143.93
2019-03-27T03:08:28.816Z,98138.15
2019-03-27T03:10:58.731Z,98135.67
2019-03-27T03:13:28.357Z,98141.97
2019-03-27T03:15:58.001Z,98146.06
2019-03-27T03:18:27.620Z,98142.60
2019-03-27T03:20:58.047Z,98145.24
2019-03-27T03:23:27.680Z,98145.55
2019-03-27T03:25:57.305Z,98142.76
2019-03-27T03:28:27.702Z,98142.91
2019-03-27T03:30:57.378Z,98140.91
2019-03-27T03:33:26.977Z,98143.36
2019-03-27T03:35:56.603Z,98140.57
2019-03-27T03:38:26.243Z,98139.06
2019-03-27T03:40:56.123Z,98136.91
2019-03-27T03:43:25.845Z,98138.56
2019-03-27T03:45:55.477Z,98142.19
2019-03-27T03:48:25.153Z,98145.46
2019-03-27T03:50:58.482Z,98148.05
2019-03-27T03:53:29.556Z,98150.05
2019-03-27T03:56:00.898Z,98154.30
2019-03-27T03:58:33.516Z,98149.69
2019-03-27T04:01:03.914Z,98149.36
2019-03-27T04:03:36.133Z,98147.70
2019-03-27T04:06:06.155Z,98153.94
2019-03-27T04:08:35.790Z,98152.56
2019-03-27T04:11:05.417Z,98155.53
2019-03-27T04:13:35.067Z,98155.55
2019-03-27T04:16:05.039Z,98161.02
2019-03-27T04:18:34.692Z,98160.20
2019-03-27T04:21:04.338Z,98165.12
2019-03-27T04:23:34.251Z,98164.82
2019-03-27T04:26:10.077Z,98162.66
2019-03-27T04:28:35.350Z,98173.98
2019-03-27T04:31:04.988Z,98175.27
2019-03-27T04:33:34.647Z,98179.58
2019-03-27T04:36:04.285Z,98176.97
2019-03-27T04:38:33.932Z,98172.50
2019-03-27T04:41:03.561Z,98173.70
2019-03-27T04:43:33.195Z,98178.55
2019-03-27T04:46:02.813Z,98175.91
2019-03-27T04:48:32.475Z,98182.41
2019-03-27T04:51:02.112Z,98186.34
2019-03-27T04:53:31.751Z,98187.09
2019-03-27T04:56:01.373Z,98183.80
2019-03-27T04:58:31.024Z,98181.27
2019-03-27T05:01:01.320Z,98180.48
2019-03-27T05:03:31.305Z,98183.70
2019-03-27T05:06:00.942Z,98182.67
2019-03-27T05:08:30.592Z,98181.67
2019-03-27T05:11:00.221Z,98185.05
2019-03-27T05:13:29.853Z,98185.38
2019-03-27T05:15:59.478Z,98192.34
2019-03-27T05:18:29.108Z,98198.91
2019-03-27T05:20:58.725Z,98201.19
2019-03-27T05:23:28.702Z,98206.82
2019-03-27T05:25:58.353Z,98205.23
2019-03-27T05:28:28.007Z,98209.81
2019-03-27T05:30:57.636Z,98210.11
2019-03-27T05:33:27.572Z,98216.42
2019-03-27T05:35:57.249Z,98214.69
2019-03-27T05:38:27.120Z,98217.13
2019-03-27T05:40:56.776Z,98220.11
2019-03-27T05:43:26.569Z,98223.13
2019-03-27T05:45:56.194Z,98228.47
2019-03-27T05:48:26.715Z,98231.83
2019-03-27T05:50:56.381Z,98226.64
2019-03-27T05:53:26.003Z,98223.76
2019-03-27T05:55:55.646Z,98219.31
2019-03-27T05:58:25.288Z,98229.73
2019-03-27T06:00:54.918Z,98221.52
2019-03-27T06:03:24.538Z,98221.73
2019-03-27T06:05:54.169Z,98223.53
2019-03-27T06:08:23.781Z,98226.03
2019-03-27T06:10:53.408Z,98229.66
2019-03-27T06:13:23.334Z,98237.59
2019-03-27T06:15:52.982Z,98229.16
2019-03-27T06:18:22.594Z,98231.11
2019-03-27T06:20:52.236Z,98235.05
2019-03-27T06:23:21.851Z,98235.97
2019-03-27T06:25:51.496Z,98238.52
2019-03-27T06:28:21.103Z,98245.19
2019-03-27T06:30:50.748Z,98252.36
2019-03-27T06:33:20.371Z,98240.35
2019-03-27T06:35:50.009Z,98246.93
2019-03-27T06:38:19.618Z,98242.35
2019-03-27T06:40:49.261Z,98248.68
2019-03-27T06:43:18.966Z,98245.08
2019-03-27T06:45:48.600Z,98253.73
2019-03-27T06:48:26.069Z,98266.98
2019-03-27T06:50:50.355Z,98273.23
2019-03-27T06:53:19.975Z,98262.47
2019-03-27T06:55:49.624Z,98254.13
2019-03-27T06:58:19.244Z,98257.22
2019-03-27T07:00:48.905Z,98254.02
2019-03-27T07:03:18.510Z,98248.76
2019-03-27T07:05:48.147Z,98257.30
2019-03-27T07:08:17.758Z,98246.08
2019-03-27T07:10:47.402Z,98248.83
2019-03-27T07:13:17.021Z,98248.05
2019-03-27T07:15:46.655Z,98261.38
2019-03-27T07:18:16.282Z,98259.98
2019-03-27T07:20:45.926Z,98266.14
2019-03-27T07:23:15.556Z,98265.52
2019-03-27T07:25:45.211Z,98264.02
2019-03-27T07:28:14.833Z,98277.80
2019-03-27T07:30:44.490Z,98284.73
2019-03-27T07:33:14.105Z,98292.52
2019-03-27T07:35:43.741Z,98283.53
2019-03-27T07:38:13.358Z,98281.13
2019-03-27T07:40:42.993Z,98280.36
2019-03-27T07:43:12.962Z,98282.17
2019-03-27T07:45:42.618Z,98286.39
2019-03-27T07:48:12.222Z,98297.08
2019-03-27T07:50:41.892Z,98298.56
2019-03-27T07:53:11.510Z,98302.00
2019-03-27T07:55:41.491Z,98295.65
2019-03-27T07:58:11.113Z,98312.80
2019-03-27T08:00:40.734Z,98312.41
2019-03-27T08:03:10.378Z,98313.00
2019-03-27T08:05:40.028Z,98318.80
2019-03-27T08:08:09.656Z,98313.27
2019-03-27T08:10:39.270Z,98309.67
2019-03-27T08:13:09.261Z,98311.98
2019-03-27T08:15:40.795Z,98315.93
2019-03-27T08:18:10.251Z,98319.07
2019-03-27T08:20:39.906Z,98316.80
2019-03-27T08:23:09.550Z,98314.09
2019-03-27T08:25:39.189Z,98311.23
2019-03-27T08:28:08.845Z,98312.44
2019-03-27T08:30:38.473Z,98313.94
2019-03-27T08:33:08.135Z,98319.82
2019-03-27T08:35:38.025Z,98323.11
2019-03-27T08:38:07.676Z,98329.80
2019-03-27T08:40:37.343Z,98314.58
2019-03-27T08:43:20.265Z,98314.05
2019-03-27T08:45:38.337Z,98318.12
2019-03-27T08:48:08.332Z,98307.31
2019-03-27T08:50:38.065Z,98319.31
2019-03-27T08:53:07.717Z,98322.38
2019-03-27T08:55:37.340Z,98312.53
2019-03-27T08:58:07.001Z,98311.62
2019-03-27T09:00:47.105Z,98306.06
2019-03-27T09:03:16.813Z,98312.73
2019-03-27T09:05:46.505Z,98322.61
2019-03-27T09:08:16.154Z,98321.19
2019-03-27T09:10:45.773Z,98321.94
2019-03-27T09:13:15.412Z,98325.27
2019-03-27T09:15:45.035Z,98329.36
2019-03-27T09:18:16.869Z,98330.19
2019-03-27T09:20:46.318Z,98326.44
2019-03-27T09:23:15.957Z,98326.11
2019-03-27T09:25:45.579Z,98322.00
2019-03-27T09:28:15.240Z,98330.14
2019-03-27T09:30:44.846Z,98329.77
2019-03-27T09:33:14.489Z,98332.71
2019-03-27T09:35:44.108Z,98335.44
2019-03-27T09:38:13.741Z,98331.74
2019-03-27T09:40:43.384Z,98329.52
2019-03-27T09:43:13.045Z,98338.59
2019-03-27T09:45:43.071Z,98340.46
2019-03-27T09:48:13.042Z,98342.48
2019-03-27T09:50:42.693Z,98351.02
2019-03-27T09:53:12.316Z,98350.95
2019-03-27T09:55:42.729Z,98346.23
2019-03-27T09:58:12.338Z,98334.16
2019-03-27T10:01:07.745Z,98337.87
2019-03-27T10:03:37.401Z,98340.29
2019-03-27T10:06:07.021Z,98338.84
2019-03-27T10:08:36.729Z,98335.04
2019-03-27T10:11:06.388Z,98336.68
2019-03-27T10:13:35.996Z,98346.06
2019-03-27T10:16:05.730Z,98347.72
2019-03-27T10:18:35.363Z,98342.70
2019-03-27T10:21:04.996Z,98345.47
2019-03-27T10:23:34.617Z,98346.97
2019-03-27T10:26:04.291Z,98340.05
2019-03-27T10:28:34.332Z,98335.10
2019-03-27T10:31:03.989Z,98337.65
2019-03-27T10:33:33.603Z,98336.14
2019-03-27T10:36:03.247Z,98341.16
2019-03-27T10:38:33.190Z,98339.61
2019-03-27T10:41:02.832Z,98339.44
2019-03-27T10:43:32.450Z,98340.58
2019-03-27T10:46:02.122Z,98338.16
2019-03-27T10:48:31.733Z,98334.30
2019-03-27T10:51:01.408Z,98325.67
2019-03-27T10:53:31.125Z,98323.75
2019-03-27T10:56:00.779Z,98338.20
2019-03-27T10:58:30.427Z,98339.58
2019-03-27T11:01:00.040Z,98338.24
2019-03-27T11:03:29.673Z,98343.02
2019-03-27T11:05:59.321Z,98339.31
2019-03-27T11:08:28.954Z,98335.04
2019-03-27T11:10:58.599Z,98334.69
2019-03-27T11:13:28.231Z,98339.64
2019-03-27T11:15:58.207Z,98328.31
2019-03-27T11:18:27.834Z,98335.12
2019-03-27T11:20:57.487Z,98338.67
2019-03-27T11:23:27.110Z,98332.63
2019-03-27T11:25:56.762Z,98328.47
2019-03-27T11:28:26.388Z,98341.76
2019-03-27T11:30:56.037Z,98343.00
2019-03-27T11:33:28.782Z,98340.73
2019-03-27T11:35:57.038Z,98349.48
2019-03-27T11:38:26.663Z,98342.64
2019-03-27T11:40:56.305Z,98339.95
2019-03-27T11:43:27.257Z,98339.55
2019-03-27T11:45:56.902Z,98350.38
2019-03-27T11:48:26.526Z,98350.34
2019-03-27T11:50:56.180Z,98335.01
2019-03-27T11:53:25.801Z,98338.21
2019-03-27T11:55:55.432Z,98346.47
2019-03-27T11:58:25.043Z,98338.00
2019-03-27T12:00:55.197Z,98341.23
2019-03-27T12:03:24.885Z,98334.80
2019-03-27T12:05:54.554Z,98341.16
2019-03-27T12:08:24.159Z,98337.72
2019-03-27T12:10:53.778Z,98342.70
2019-03-27T12:13:23.421Z,98345.05
2019-03-27T12:15:53.037Z,98342.78
2019-03-27T12:18:22.678Z,98343.48
2019-03-27T12:20:58.928Z,98341.47
2019-03-27T12:23:23.636Z,98346.82
2019-03-27T12:25:55.208Z,98345.95
2019-03-27T12:28:24.619Z,98348.66
2019-03-27T12:30:54.253Z,98333.28
2019-03-27T12:33:23.901Z,98329.84
2019-03-27T12:35:53.529Z,98325.70
2019-03-27T12:38:23.173Z,98320.88
2019-03-27T12:40:52.779Z,98320.50
2019-03-27T12:43:22.424Z,98323.67
2019-03-27T12:45:52.036Z,98317.03
2019-03-27T12:48:21.668Z,98316.02
2019-03-27T12:50:51.324Z,98311.34
2019-03-27T12:53:20.988Z,98312.28
2019-03-27T12:55:50.609Z,98306.91
2019-03-27T12:58:20.256Z,98317.30
2019-03-27T13:00:49.912Z,98312.49
2019-03-27T13:03:19.575Z,98312.98
2019-03-27T13:05:49.221Z,98303.30
2019-03-27T13:08:18.866Z,98305.69
2019-03-27T13:10:48.490Z,98304.83
2019-03-27T13:13:18.131Z,98299.17
2019-03-27T13:15:47.761Z,98301.33
2019-03-27T13:18:17.400Z,98303.03
2019-03-27T13:20:47.025Z,98306.59
2019-03-27T13:23:16.668Z,98300.34
2019-03-27T13:25:46.285Z,98297.11
2019-03-27T13:28:15.939Z,98308.77
2019-03-27T13:30:45.562Z,98312.88
2019-03-27T13:33:15.209Z,98311.45
2019-03-27T13:35:44.821Z,98304.97
2019-03-27T13:38:14.464Z,98305.52
2019-03-27T13:40:44.105Z,98307.14
2019-03-27T13:43:13.763Z,98301.59
2019-03-27T13:45:43.408Z,98308.54
2019-03-27T13:48:13.037Z,98300.98
2019-03-27T13:50:42.710Z,98316.30
2019-03-27T13:53:12.355Z,98312.42
2019-03-27T13:55:42.000Z,98302.03
2019-03-27T13:58:11.616Z,98309.50
2019-03-27T14:00:41.261Z,98304.08
2019-03-27T14:03:10.876Z,98306.66
2019-03-27T14:05:40.511Z,98297.19
2019-03-27T14:08:10.134Z,98299.70
2019-03-27T14:10:39.785Z,98298.27
2019-03-27T14:13:09.408Z,98298.45
2019-03-27T14:15:39.053Z,98300.45
2019-03-27T14:18:08.754Z,98302.61
2019-03-27T14:20:38.404Z,98291.63
2019-03-27T14:23:08.016Z,98290.23
2019-03-27T14:25:37.655Z,98295.56
2019-03-27T14:28:07.285Z,98294.54
2019-03-27T14:31:11.039Z,98284.20
2019-03-27T14:33:40.672Z,98290.73
2019-03-27T14:36:10.317Z,98293.95
2019-03-27T14:38:40.002Z,98288.17
2019-03-27T14:41:09.611Z,98285.92
2019-03-27T14:43:39.232Z,98286.16
2019-03-27T14:46:08.889Z,98284.09
2019-03-27T14:48:38.513Z,98269.97
2019-03-27T14:51:08.184Z,98278.37
2019-03-27T14:53:37.788Z,98278.37
2019-03-27T14:56:07.420Z,98284.44
2019-03-27T14:58:37.116Z,98285.69
2019-03-27T15:01:06.751Z,98281.92
2019-03-27T15:03:36.390Z,98286.45
2019-03-27T15:06:06.138Z,98286.52
2019-03-27T15:08:35.758Z,98282.42
2019-03-27T15:11:05.405Z,98282.73
2019-03-27T15:13:35.022Z,98288.15
2019-03-27T15:16:04.774Z,98288.39
2019-03-27T15:18:34.389Z,98296.00
2019-03-27T15:21:04.021Z,98290.47
2019-03-27T15:23:33.652Z,98290.47
2019-03-27T15:26:03.293Z,98296.73
2019-03-27T15:28:32.925Z,98288.99
2019-03-27T15:31:02.569Z,98292.19
2019-03-27T15:33:32.210Z,98291.88
2019-03-27T15:36:01.870Z,98291.01
2019-03-27T15:38:31.497Z,98287.59
2019-03-27T15:41:01.160Z,98290.74
2019-03-27T15:43:31.064Z,98290.41
2019-03-27T15:46:00.713Z,98283.68
2019-03-27T15:48:30.359Z,98290.28
2019-03-27T15:51:00.032Z,98293.58
2019-03-27T15:53:29.667Z,98290.38
2019-03-27T15:55:59.304Z,98286.17
2019-03-27T15:58:28.987Z,98292.97
2019-03-27T16:00:58.648Z,98293.89
2019-03-27T16:03:28.427Z,98293.75
2019-03-27T16:05:58.094Z,98297.75
2019-03-27T16:08:27.816Z,98296.31
2019-03-27T16:10:57.743Z,98300.06
2019-03-27T16:13:27.529Z,98297.12
2019-03-27T16:15:57.725Z,98296.84
2019-03-27T16:18:27.335Z,98299.84
2019-03-27T16:20:57.060Z,98298.81
2019-03-27T16:23:26.672Z,98294.67
2019-03-27T16:25:56.314Z,98296.25
2019-03-27T16:28:25.940Z,98293.12
2019-03-27T16:30:55.760Z,98300.44
2019-03-27T16:33:25.487Z,98300.72
2019-03-27T16:35:55.307Z,98308.20
2019-03-27T16:38:24.901Z,98303.22
2019-03-27T16:40:54.546Z,98306.38
2019-03-27T16:43:24.175Z,98304.83
2019-03-27T16:45:53.801Z,98311.33
2019-03-27T16:48:23.434Z,98313.69
2019-03-27T16:50:53.333Z,98309.25
2019-03-27T16:53:22.967Z,98313.35
2019-03-27T16:55:52.591Z,98307.80
2019-03-27T16:58:22.219Z,98310.83
2019-03-27T17:00:51.884Z,98311.00
2019-03-27T17:03:21.528Z,98315.33
2019-03-27T17:05:54.252Z,98321.38
2019-03-27T17:08:22.488Z,98333.20
2019-03-27T17:10:52.254Z,98329.59
2019-03-27T17:13:21.888Z,98325.18
2019-03-27T17:15:51.634Z,98326.19
2019-03-27T17:18:21.659Z,98321.12
2019-03-27T17:20:51.354Z,98332.68
2019-03-27T17:23:20.980Z,98337.22
2019-03-27T17:25:50.702Z,98331.55
2019-03-27T17:28:20.293Z,98332.03
2019-03-27T17:30:49.908Z,98341.66
2019-03-27T17:33:19.536Z,98343.32
2019-03-27T17:35:49.200Z,98343.70
2019-03-27T17:38:18.891Z,98335.75
2019-03-27T17:40:48.449Z,98335.21
2019-03-27T17:43:18.089Z,98338.66
2019-03-27T17:45:47.723Z,98346.81
2019-03-27T17:48:17.358Z,98339.35
2019-03-27T17:50:46.998Z,98346.80
2019-03-27T17:53:16.800Z,98344.66
2019-03-27T17:55:46.427Z,98343.77
2019-03-27T17:58:16.051Z,98348.33
2019-03-27T18:00:48.558Z,98351.39
2019-03-27T18:03:18.269Z,98352.52
2019-03-27T18:05:47.844Z,98356.83
2019-03-27T18:08:17.493Z,98359.38
2019-03-27T18:10:48.523Z,98360.43
2019-03-27T18:13:18.166Z,98365.62
2019-03-27T18:15:47.785Z,98369.53
2019-03-27T18:18:17.420Z,98364.78
2019-03-27T18:20:47.064Z,98370.95
2019-03-27T18:23:16.801Z,98368.16
2019-03-27T18:25:46.443Z,98379.45
2019-03-27T18:28:16.157Z,98375.57
2019-03-27T18:30:45.783Z,98374.33
2019-03-27T18:33:15.447Z,98382.64
2019-03-27T18:35:45.154Z,98376.00
2019-03-27T18:38:14.844Z,98378.23
2019-03-27T18:40:44.570Z,98378.91
2019-03-27T18:43:14.187Z,98384.39
2019-03-27T18:45:43.818Z,98386.08
2019-03-27T18:48:13.444Z,98387.08
2019-03-27T18:50:46.189Z,98390.09
2019-03-27T18:53:15.801Z,98392.94
2019-03-27T18:55:45.539Z,98392.70
2019-03-27T18:58:15.464Z,98392.20
2019-03-27T19:00:45.456Z,98393.87
2019-03-27T19:03:15.103Z,98393.91
2019-03-27T19:05:44.772Z,98394.48
2019-03-27T19:08:14.392Z,98402.94
2019-03-27T19:10:44.096Z,98400.77
2019-03-27T19:13:13.718Z,98406.45
2019-03-27T19:15:43.350Z,98403.66
2019-03-27T19:18:12.973Z,98407.82
2019-03-27T19:20:43.275Z,98412.02
2019-03-27T19:23:12.895Z,98405.06
2019-03-27T19:25:42.538Z,98410.88
2019-03-27T19:28:12.152Z,98410.18
2019-03-27T19:30:41.786Z,98412.56
2019-03-27T19:33:11.412Z,98419.16
2019-03-27T19:35:41.386Z,98418.84
2019-03-27T19:38:11.016Z,98408.25
2019-03-27T19:40:40.647Z,98418.03
2019-03-27T19:43:10.282Z,98412.62
2019-03-27T19:45:40.183Z,98423.90
2019-03-27T19:48:09.811Z,98418.12
2019-03-27T19:50:39.465Z,98412.79
2019-03-27T19:53:09.927Z,98421.73
2019-03-27T19:55:39.566Z,98414.78
2019-03-27T19:58:09.179Z,98418.27
2019-03-27T20:00:38.829Z,98411.97
2019-03-27T20:03:08.445Z,98415.62
2019-03-27T20:05:38.079Z,98424.55
2019-03-27T20:08:07.691Z,98420.61
2019-03-27T20:10:37.342Z,98415.78
2019-03-27T20:13:06.963Z,98418.78
2019-03-27T20:15:36.604Z,98414.34
2019-03-27T20:18:06.344Z,98414.01
2019-03-27T20:20:35.952Z,98417.30
2019-03-27T20:23:14.957Z,98418.13
2019-03-27T20:25:37.190Z,98412.34
2019-03-27T20:28:08.507Z,98416.14
2019-03-27T20:30:38.108Z,98421.94
2019-03-27T20:33:07.750Z,98416.63
2019-03-27T20:35:37.981Z,98414.34
2019-03-27T20:38:08.999Z,98421.92
2019-03-27T20:40:38.617Z,98419.45
2019-03-27T20:43:08.258Z,98419.95
2019-03-27T20:45:37.868Z,98416.13
2019-03-27T20:48:07.832Z,98420.61
2019-03-27T20:50:37.845Z,98415.00
2019-03-27T20:53:07.837Z,98420.61
2019-03-27T20:55:37.466Z,98418.78
2019-03-27T20:58:07.107Z,98425.42
2019-03-27T21:00:36.793Z,98421.27
2019-03-27T21:03:06.436Z,98418.80
2019-03-27T21:05:36.052Z,98419.94
2019-03-27T21:08:05.697Z,98419.97
2019-03-27T21:10:35.668Z,98421.94
2019-03-27T21:13:05.945Z,98423.91
2019-03-27T21:15:38.632Z,98426.42
2019-03-27T21:18:10.344Z,98432.17
2019-03-27T21:20:40.605Z,98427.55
2019-03-27T21:23:10.634Z,98430.20
2019-03-27T21:25:40.514Z,98432.51
2019-03-27T21:28:11.545Z,98437.47
2019-03-27T21:30:41.680Z,98435.96
2019-03-27T21:33:11.656Z,98440.76
2019-03-27T21:35:41.818Z,98435.16
2019-03-27T21:38:13.267Z,98435.16
2019-03-27T21:40:43.849Z,98441.77
2019-03-27T21:43:13.700Z,98450.69
2019-03-27T21:45:43.755Z,98448.36
2019-03-27T21:48:15.254Z,98447.03
2019-03-27T21:50:45.293Z,98450.69
2019-03-27T21:53:15.413Z,98452.51
2019-03-27T21:55:45.015Z,98453.00
2019-03-27T21:58:14.667Z,98458.78
2019-03-27T22:00:44.276Z,98454.09
2019-03-27T22:03:13.921Z,98456.59
2019-03-27T22:05:43.536Z,98457.27
2019-03-27T22:08:13.747Z,98465.20
2019-03-27T22:10:43.747Z,98458.41
2019-03-27T22:13:13.358Z,98457.22
2019-03-27T22:15:43.494Z,98458.55
2019-03-27T22:18:13.108Z,98464.52
2019-03-27T22:20:43.013Z,98472.45
2019-03-27T22:23:12.887Z,98466.82
2019-03-27T22:25:42.532Z,98474.76
2019-03-27T22:28:12.151Z,98477.05
2019-03-27T22:30:41.783Z,98474.34
2019-03-27T22:33:11.743Z,98474.69
2019-03-27T22:35:41.392Z,98478.31
2019-03-27T22:38:11.013Z,98476.16
2019-03-27T22:40:40.989Z,98482.27
2019-03-27T22:43:10.947Z,98478.26
2019-03-27T22:45:41.707Z,98484.85
2019-03-27T22:48:12.871Z,98482.70
2019-03-27T22:50:42.897Z,98482.55
2019-03-27T22:53:12.507Z,98478.59
2019-03-27T22:55:49.925Z,98478.94
2019-03-27T22:58:14.321Z,98482.53
2019-03-27T23:00:46.684Z,98486.13
2019-03-27T23:03:18.440Z,98483.77
2019-03-27T23:05:48.824Z,98481.43
2019-03-27T23:08:18.783Z,98484.41
2019-03-27T23:10:48.387Z,98489.30
2019-03-27T23:13:18.003Z,98493.97
2019-03-27T23:15:49.178Z,98480.42
2019-03-27T23:18:18.793Z,98480.62
2019-03-27T23:20:48.653Z,98481.12
2019-03-27T23:23:18.602Z,98484.31
2019-03-27T23:25:48.221Z,98478.89
2019-03-27T23:28:17.853Z,98490.61
2019-03-27T23:30:48.316Z,98488.48
2019-03-27T23:33:20.241Z,98485.77
2019-03-27T23:35:50.487Z,98487.28
2019-03-27T23:38:20.698Z,98486.66
2019-03-27T23:40:50.622Z,98486.95
2019-03-27T23:43:20.634Z,98484.30
2019-03-27T23:45:51.427Z,98484.64
2019-03-27T23:48:21.066Z,98478.99
2019-03-27T23:50:51.252Z,98484.91
2019-03-27T23:53:20.889Z,98482.58
2019-03-27T23:55:50.532Z,98479.34
2019-03-27T23:58:20.179Z,98478.20
